Williamsport, Pennsylvania
Current Conditions -  °F | °C
As of 10:54 PM on Friday 19 Dec 2014 (Local Time) from KIPT Reporting Station
Overcast Overcast  
Wind Chill: 26°   Ceiling: 4000
Heat Index: 32°   Visibility: 10mi
Dew Point: 18°   Wind: 7mph
Humidity: 56%   Direction: 290°WNW
Pressure: 30.23"   Gusts: NA
Location:  41.24°N, 77°W
Report Text: KIPT 200354Z AUTO 29006KT 10SM OVC040 00/M08 A3023 RMK AO2 SLP243 T00001078
Loading
Personal Weather Stations






























Interactive Weather Map New forecast layout! Learn more

10-Day Weather Forecast

Advertisements
Track Severe Weather on mobile